createdAt,value
2019-03-15T00:01:36.545Z,10.30
2019-03-15T00:04:04.723Z,10.40
2019-03-15T00:06:32.896Z,10.40
2019-03-15T00:09:01.129Z,10.30
2019-03-15T00:11:29.438Z,10.20
2019-03-15T00:13:57.820Z,10.20
2019-03-15T00:16:26.042Z,10.20
2019-03-15T00:18:54.272Z,10.20
2019-03-15T00:21:22.463Z,10.20
2019-03-15T00:23:50.799Z,10.30
2019-03-15T00:26:19.135Z,10.20
2019-03-15T00:28:47.510Z,10.20
2019-03-15T00:31:16.007Z,10.30
2019-03-15T00:33:44.248Z,10.30
2019-03-15T00:36:12.436Z,10.30
2019-03-15T00:38:42.360Z,10.30
2019-03-15T00:41:11.041Z,10.20
2019-03-15T00:43:39.436Z,10.30
2019-03-15T00:46:07.827Z,10.20
2019-03-15T00:48:36.074Z,10.40
2019-03-15T00:51:04.124Z,10.20
2019-03-15T00:53:32.368Z,10.20
2019-03-15T00:56:00.589Z,9.90
2019-03-15T00:58:28.864Z,10.00
2019-03-15T01:00:57.259Z,10.10
2019-03-15T01:03:25.516Z,10.10
2019-03-15T01:05:53.676Z,10.30
2019-03-15T01:08:21.923Z,10.20
2019-03-15T01:10:50.018Z,10.30
2019-03-15T01:13:18.294Z,10.40
2019-03-15T01:15:46.735Z,10.50
2019-03-15T01:18:14.849Z,10.60
2019-03-15T01:20:43.050Z,10.60
2019-03-15T01:23:11.399Z,10.40
2019-03-15T01:25:39.590Z,10.40
2019-03-15T01:28:08.254Z,10.60
2019-03-15T01:30:36.490Z,10.60
2019-03-15T01:33:04.707Z,10.50
2019-03-15T01:35:33.982Z,10.60
2019-03-15T01:38:02.451Z,10.60
2019-03-15T01:40:32.351Z,10.70
2019-03-15T01:43:00.593Z,10.70
2019-03-15T01:45:29.031Z,10.70
2019-03-15T01:47:57.226Z,10.80
2019-03-15T01:50:25.403Z,10.70
2019-03-15T01:52:54.766Z,10.60
2019-03-15T01:55:22.652Z,10.70
2019-03-15T01:57:50.935Z,10.60
2019-03-15T02:00:19.193Z,10.60
2019-03-15T02:02:48.439Z,10.70
2019-03-15T02:05:16.683Z,10.60
2019-03-15T02:07:45.149Z,10.40
2019-03-15T02:10:13.362Z,10.60
2019-03-15T02:12:41.624Z,10.60
2019-03-15T02:15:09.962Z,10.70
2019-03-15T02:17:38.405Z,10.70
2019-03-15T02:20:06.855Z,10.70
2019-03-15T02:22:54.122Z,10.80
2019-03-15T02:25:22.382Z,10.70
2019-03-15T02:27:50.531Z,10.30
2019-03-15T02:30:18.787Z,10.10
2019-03-15T02:32:46.979Z,10.10
2019-03-15T02:35:15.317Z,10.30
2019-03-15T02:37:43.704Z,10.50
2019-03-15T02:40:12.854Z,10.60
2019-03-15T02:42:42.448Z,10.60
2019-03-15T02:45:10.858Z,10.70
2019-03-15T02:47:39.105Z,10.70
2019-03-15T02:50:07.669Z,10.70
2019-03-15T02:52:35.976Z,10.60
2019-03-15T02:55:04.223Z,10.60
2019-03-15T02:57:32.413Z,10.40
2019-03-15T03:00:00.905Z,10.50
2019-03-15T03:02:29.258Z,10.20
2019-03-15T03:04:57.644Z,10.20
2019-03-15T03:07:26.149Z,10.20
2019-03-15T03:09:54.394Z,10.00
2019-03-15T03:12:22.661Z,9.90
2019-03-15T03:14:50.755Z,9.90
2019-03-15T03:17:18.910Z,9.80
2019-03-15T03:19:47.080Z,9.90
2019-03-15T03:22:15.220Z,9.90
2019-03-15T03:24:43.546Z,10.10
2019-03-15T03:27:11.919Z,10.10
2019-03-15T03:29:40.259Z,10.10
2019-03-15T03:32:08.456Z,10.20
2019-03-15T03:34:36.751Z,10.40
2019-03-15T03:37:05.087Z,10.20
2019-03-15T03:39:34.303Z,10.20
2019-03-15T03:42:02.792Z,10.20
2019-03-15T03:44:32.685Z,10.20
2019-03-15T03:47:00.876Z,10.20
2019-03-15T03:49:29.107Z,9.90
2019-03-15T03:51:57.465Z,9.90
2019-03-15T03:54:25.939Z,9.80
2019-03-15T03:56:54.099Z,9.90
2019-03-15T03:59:22.473Z,10.00
2019-03-15T04:01:50.834Z,9.70
2019-03-15T04:04:18.921Z,9.60
2019-03-15T04:06:47.325Z,9.30
2019-03-15T04:09:15.608Z,9.40
2019-03-15T04:11:54.684Z,9.50
2019-03-15T04:14:13.961Z,9.30
2019-03-15T04:16:42.227Z,9.30
2019-03-15T04:19:10.401Z,9.20
2019-03-15T04:21:38.715Z,9.20
2019-03-15T04:24:06.971Z,9.30
2019-03-15T04:26:35.237Z,9.30
2019-03-15T04:29:03.651Z,9.30
2019-03-15T04:31:32.001Z,9.30
2019-03-15T04:34:00.195Z,9.20
2019-03-15T04:36:28.508Z,9.20
2019-03-15T04:38:56.660Z,9.20
2019-03-15T04:41:24.677Z,9.30
2019-03-15T04:43:52.906Z,9.30
2019-03-15T04:46:21.227Z,9.30
2019-03-15T04:48:49.526Z,9.30
2019-03-15T04:51:17.797Z,9.40
2019-03-15T04:53:45.990Z,9.40
2019-03-15T04:56:14.235Z,9.40
2019-03-15T04:58:42.506Z,9.30
2019-03-15T05:01:10.573Z,9.30
2019-03-15T05:03:38.856Z,9.40
2019-03-15T05:06:07.400Z,9.20
2019-03-15T05:08:35.553Z,9.20
2019-03-15T05:11:03.779Z,9.30
2019-03-15T05:13:32.023Z,9.40
2019-03-15T05:16:00.337Z,9.30
2019-03-15T05:18:28.498Z,9.20
2019-03-15T05:20:56.739Z,9.30
2019-03-15T05:23:25.174Z,9.20
2019-03-15T05:25:53.448Z,9.30
2019-03-15T05:28:22.283Z,9.30
2019-03-15T05:30:50.500Z,9.40
2019-03-15T05:33:18.802Z,9.30
2019-03-15T05:35:47.113Z,9.10
2019-03-15T05:38:15.219Z,9.30
2019-03-15T05:40:43.414Z,9.40
2019-03-15T05:43:11.697Z,9.50
2019-03-15T05:45:39.994Z,9.50
2019-03-15T05:48:09.323Z,9.50
2019-03-15T05:50:40.548Z,9.60
2019-03-15T05:53:07.320Z,9.70
2019-03-15T05:55:35.508Z,9.80
2019-03-15T05:58:03.747Z,9.80
2019-03-15T06:00:31.970Z,9.90
2019-03-15T06:03:00.233Z,10.20
2019-03-15T06:05:28.567Z,10.40
2019-03-15T06:07:56.796Z,10.40
2019-03-15T06:10:24.896Z,10.40
2019-03-15T06:12:53.212Z,10.50
2019-03-15T06:15:21.403Z,10.50
2019-03-15T06:17:49.678Z,10.50
2019-03-15T06:20:18.052Z,10.50
2019-03-15T06:22:46.132Z,10.70
2019-03-15T06:25:14.583Z,10.90
2019-03-15T06:27:42.877Z,11.00
2019-03-15T06:30:11.166Z,11.00
2019-03-15T06:32:39.331Z,11.10
2019-03-15T06:35:07.784Z,11.40
2019-03-15T06:37:36.003Z,11.40
2019-03-15T06:40:04.636Z,11.50
2019-03-15T06:42:32.961Z,11.70
2019-03-15T06:45:01.223Z,12.00
2019-03-15T06:47:30.053Z,13.10
2019-03-15T06:50:00.304Z,14.60
2019-03-15T06:52:28.550Z,15.70
2019-03-15T06:54:56.697Z,16.60
2019-03-15T06:57:25.037Z,17.60
2019-03-15T06:59:52.885Z,18.30
2019-03-15T07:02:21.124Z,18.70
2019-03-15T07:04:49.524Z,19.30
2019-03-15T07:07:17.828Z,19.20
2019-03-15T07:09:46.032Z,20.10
2019-03-15T07:12:14.224Z,20.50
2019-03-15T07:14:42.478Z,21.20
2019-03-15T07:17:10.868Z,21.80
2019-03-15T07:19:39.096Z,21.90
2019-03-15T07:22:07.297Z,22.60
2019-03-15T07:24:35.701Z,22.70
2019-03-15T07:27:12.955Z,23.20
2019-03-15T07:29:34.197Z,23.70
2019-03-15T07:32:02.350Z,24.00
2019-03-15T07:34:30.683Z,23.90
2019-03-15T07:36:58.803Z,24.00
2019-03-15T07:39:26.967Z,24.20
2019-03-15T07:41:55.398Z,24.40
2019-03-15T07:44:23.628Z,24.90
2019-03-15T07:46:51.895Z,24.40
2019-03-15T07:49:20.019Z,23.80
2019-03-15T07:51:49.270Z,23.60
2019-03-15T07:54:17.381Z,24.20
2019-03-15T07:56:45.696Z,24.60
2019-03-15T07:59:14.026Z,25.40
2019-03-15T08:01:42.270Z,25.60
2019-03-15T08:04:16.675Z,25.50
2019-03-15T08:06:40.794Z,25.80
2019-03-15T08:09:09.253Z,25.80
2019-03-15T08:11:37.602Z,26.20
2019-03-15T08:14:05.903Z,26.40
2019-03-15T08:16:34.627Z,26.40
2019-03-15T08:19:05.026Z,26.90
2019-03-15T08:21:33.209Z,26.90
2019-03-15T08:24:01.475Z,26.00
2019-03-15T08:26:30.353Z,26.10
2019-03-15T08:28:58.627Z,26.50
2019-03-15T08:31:26.909Z,26.50
2019-03-15T08:33:55.148Z,26.00
2019-03-15T08:36:22.968Z,25.90
2019-03-15T08:38:51.335Z,25.70
2019-03-15T08:41:19.346Z,25.30
2019-03-15T08:43:47.499Z,25.30
2019-03-15T08:46:15.735Z,25.60
2019-03-15T08:48:44.072Z,25.30
2019-03-15T08:51:12.253Z,25.10
2019-03-15T08:53:40.618Z,25.00
2019-03-15T08:56:08.936Z,24.50
2019-03-15T08:58:37.008Z,24.50
2019-03-15T09:01:05.185Z,23.70
2019-03-15T09:03:34.478Z,23.90
2019-03-15T09:06:02.964Z,23.70
2019-03-15T09:08:31.139Z,23.70
2019-03-15T09:10:59.449Z,23.20
2019-03-15T09:13:27.694Z,23.50
2019-03-15T09:15:55.863Z,23.20
2019-03-15T09:18:23.971Z,23.00
2019-03-15T09:20:52.216Z,23.20
2019-03-15T09:23:20.268Z,23.50
2019-03-15T09:25:48.509Z,23.70
2019-03-15T09:28:16.768Z,24.00
2019-03-15T09:30:45.017Z,23.90
2019-03-15T09:33:13.230Z,23.60
2019-03-15T09:35:41.566Z,23.10
2019-03-15T09:38:10.674Z,23.20
2019-03-15T09:40:39.000Z,23.60
2019-03-15T09:43:07.206Z,23.40
2019-03-15T09:45:35.108Z,23.50
2019-03-15T09:48:03.451Z,23.50
2019-03-15T09:50:40.029Z,23.00
2019-03-15T09:53:01.752Z,23.40
2019-03-15T09:55:33.138Z,23.50
2019-03-15T09:58:01.163Z,23.60
2019-03-15T10:00:29.423Z,22.60
2019-03-15T10:02:57.723Z,23.50
2019-03-15T10:05:25.916Z,23.70
2019-03-15T10:07:54.160Z,23.80
2019-03-15T10:10:22.404Z,23.90
2019-03-15T10:12:50.740Z,23.90
2019-03-15T10:15:19.024Z,23.80
2019-03-15T10:17:47.337Z,23.90
2019-03-15T10:20:15.633Z,23.90
2019-03-15T10:22:43.930Z,24.30
2019-03-15T10:25:12.289Z,24.40
2019-03-15T10:27:40.359Z,24.40
2019-03-15T10:30:10.515Z,24.70
2019-03-15T10:32:38.759Z,24.60
2019-03-15T10:35:07.229Z,23.70
2019-03-15T10:37:35.512Z,24.40
2019-03-15T10:40:04.906Z,24.30
2019-03-15T10:42:33.088Z,24.50
2019-03-15T10:45:01.207Z,24.60
2019-03-15T10:47:29.498Z,25.10
2019-03-15T10:49:57.752Z,25.30
2019-03-15T10:52:26.037Z,25.70
2019-03-15T10:54:54.397Z,25.80
2019-03-15T10:57:22.658Z,25.50
2019-03-15T10:59:50.936Z,25.80
2019-03-15T11:02:19.433Z,26.20
2019-03-15T11:04:47.762Z,26.00
2019-03-15T11:07:15.853Z,26.40
2019-03-15T11:09:44.284Z,26.10
2019-03-15T11:12:12.610Z,25.70
2019-03-15T11:14:40.766Z,25.70
2019-03-15T11:17:09.148Z,26.20
2019-03-15T11:19:37.546Z,25.30
2019-03-15T11:22:05.827Z,25.80
2019-03-15T11:24:34.160Z,24.90
2019-03-15T11:27:02.356Z,25.90
2019-03-15T11:29:30.764Z,25.60
2019-03-15T11:31:58.854Z,25.80
2019-03-15T11:34:27.158Z,25.30
2019-03-15T11:36:58.484Z,25.30
2019-03-15T11:39:25.559Z,26.10
2019-03-15T11:41:53.639Z,26.40
2019-03-15T11:44:21.819Z,25.60
2019-03-15T11:46:50.273Z,26.20
2019-03-15T11:49:18.694Z,25.70
2019-03-15T11:51:46.851Z,25.70
2019-03-15T11:54:15.087Z,26.30
2019-03-15T11:56:45.108Z,26.60
2019-03-15T11:59:13.343Z,27.10
2019-03-15T12:01:41.734Z,26.40
2019-03-15T12:04:09.972Z,25.90
2019-03-15T12:06:38.153Z,26.20
2019-03-15T12:09:07.339Z,26.20
2019-03-15T12:11:35.514Z,26.70
2019-03-15T12:14:03.907Z,27.10
2019-03-15T12:16:32.250Z,26.50
2019-03-15T12:19:00.551Z,26.20
2019-03-15T12:21:28.715Z,26.60
2019-03-15T12:23:56.994Z,26.60
2019-03-15T12:26:25.173Z,26.80
2019-03-15T12:28:53.562Z,26.80
2019-03-15T12:31:21.904Z,27.00
2019-03-15T12:33:50.131Z,26.60
2019-03-15T12:36:18.274Z,25.70
2019-03-15T12:38:46.684Z,24.70
2019-03-15T12:41:14.877Z,25.60
2019-03-15T12:43:43.103Z,25.90
2019-03-15T12:46:11.600Z,25.60
2019-03-15T12:48:39.849Z,25.80
2019-03-15T12:51:08.037Z,26.50
2019-03-15T12:53:36.285Z,26.30
2019-03-15T12:56:04.697Z,26.60
2019-03-15T12:58:32.983Z,26.80
2019-03-15T13:01:01.298Z,26.00
2019-03-15T13:03:29.625Z,26.20
2019-03-15T13:05:57.904Z,25.80
2019-03-15T13:08:26.261Z,26.00
2019-03-15T13:10:54.435Z,25.90
2019-03-15T13:13:22.607Z,25.30
2019-03-15T13:15:51.123Z,24.90
2019-03-15T13:18:19.318Z,24.80
2019-03-15T13:20:47.804Z,24.60
2019-03-15T13:23:16.084Z,24.50
2019-03-15T13:25:44.292Z,24.60
2019-03-15T13:28:12.540Z,24.50
2019-03-15T13:30:40.860Z,24.70
2019-03-15T13:33:19.708Z,24.60
2019-03-15T13:35:39.030Z,24.30
2019-03-15T13:38:07.185Z,24.20
2019-03-15T13:40:35.222Z,23.60
2019-03-15T13:43:03.447Z,23.60
2019-03-15T13:45:33.081Z,23.60
2019-03-15T13:48:01.367Z,23.70
2019-03-15T13:50:29.508Z,23.30
2019-03-15T13:52:57.795Z,23.10
2019-03-15T13:55:26.050Z,23.30
2019-03-15T13:57:54.117Z,23.00
2019-03-15T14:00:22.645Z,22.90
2019-03-15T14:02:50.882Z,22.90
2019-03-15T14:05:19.157Z,22.90
2019-03-15T14:07:47.387Z,23.10
2019-03-15T14:10:15.608Z,23.20
2019-03-15T14:12:43.772Z,22.30
2019-03-15T14:15:12.040Z,22.60
2019-03-15T14:17:40.234Z,22.70
2019-03-15T14:20:09.444Z,22.60
2019-03-15T14:22:37.762Z,22.10
2019-03-15T14:25:06.530Z,22.30
2019-03-15T14:27:37.843Z,22.20
2019-03-15T14:30:05.182Z,22.30
2019-03-15T14:32:33.384Z,22.20
2019-03-15T14:35:01.642Z,22.20
2019-03-15T14:37:29.874Z,22.00
2019-03-15T14:39:58.475Z,21.70
2019-03-15T14:42:26.799Z,20.80
2019-03-15T14:44:54.929Z,20.40
2019-03-15T14:47:23.138Z,20.80
2019-03-15T14:49:51.298Z,21.20
2019-03-15T14:52:19.427Z,21.40
2019-03-15T14:54:47.745Z,21.10
2019-03-15T14:57:15.735Z,21.30
2019-03-15T14:59:45.618Z,21.30
2019-03-15T15:02:13.993Z,20.60
2019-03-15T15:04:42.401Z,19.70
2019-03-15T15:07:10.737Z,18.80
2019-03-15T15:09:39.035Z,18.40
2019-03-15T15:12:07.349Z,19.00
2019-03-15T15:14:35.671Z,19.30
2019-03-15T15:17:04.938Z,18.60
2019-03-15T15:19:33.267Z,18.90
2019-03-15T15:22:01.612Z,19.30
2019-03-15T15:24:29.838Z,19.60
2019-03-15T15:26:58.090Z,19.70
2019-03-15T15:29:26.417Z,19.70
2019-03-15T15:31:54.684Z,19.80
2019-03-15T15:34:23.123Z,19.90
2019-03-15T15:36:51.462Z,20.00
2019-03-15T15:39:19.492Z,19.60
2019-03-15T15:41:47.866Z,18.10
2019-03-15T15:44:16.087Z,17.70
2019-03-15T15:46:44.214Z,18.00
2019-03-15T15:49:12.189Z,17.50
2019-03-15T15:51:40.574Z,17.00
2019-03-15T15:54:08.861Z,17.40
2019-03-15T15:56:37.213Z,17.90
2019-03-15T15:59:05.539Z,18.10
2019-03-15T16:01:35.709Z,18.20
2019-03-15T16:04:03.964Z,18.10
2019-03-15T16:06:32.312Z,18.20
2019-03-15T16:09:00.851Z,18.20
2019-03-15T16:11:29.090Z,18.60
2019-03-15T16:13:57.278Z,17.90
2019-03-15T16:16:25.546Z,18.20
2019-03-15T16:18:53.883Z,18.30
2019-03-15T16:21:22.343Z,18.20
2019-03-15T16:23:50.617Z,18.00
2019-03-15T16:26:18.975Z,18.20
2019-03-15T16:28:47.198Z,18.30
2019-03-15T16:31:15.510Z,18.40
2019-03-15T16:33:43.782Z,18.30
2019-03-15T16:36:12.196Z,18.30
2019-03-15T16:38:40.430Z,18.20
2019-03-15T16:41:08.524Z,17.30
2019-03-15T16:43:36.847Z,16.80
2019-03-15T16:46:05.092Z,16.80
2019-03-15T16:48:33.249Z,16.90
2019-03-15T16:51:01.658Z,17.00
2019-03-15T16:53:30.016Z,16.20
2019-03-15T16:55:58.239Z,15.80
2019-03-15T16:58:26.602Z,15.50
2019-03-15T17:00:54.739Z,15.50
2019-03-15T17:03:22.981Z,16.10
2019-03-15T17:05:51.322Z,16.50
2019-03-15T17:08:19.533Z,16.70
2019-03-15T17:10:47.615Z,16.90
2019-03-15T17:13:15.935Z,16.90
2019-03-15T17:15:44.168Z,16.90
2019-03-15T17:18:12.454Z,16.70
2019-03-15T17:20:40.760Z,16.00
2019-03-15T17:23:09.025Z,16.20
2019-03-15T17:25:37.184Z,16.30
2019-03-15T17:28:05.496Z,16.20
2019-03-15T17:30:33.758Z,15.70
2019-03-15T17:33:02.024Z,15.30
2019-03-15T17:35:30.446Z,14.80
2019-03-15T17:37:58.521Z,14.70
2019-03-15T17:40:26.940Z,14.50
2019-03-15T17:42:55.129Z,14.60
2019-03-15T17:45:23.470Z,14.60
2019-03-15T17:47:51.582Z,14.40
2019-03-15T17:50:19.805Z,14.40
2019-03-15T17:52:48.041Z,14.30
2019-03-15T17:55:16.690Z,14.30
2019-03-15T17:57:45.900Z,14.30
2019-03-15T18:00:34.746Z,14.20
2019-03-15T18:03:03.497Z,14.20
2019-03-15T18:05:31.787Z,14.30
2019-03-15T18:07:59.858Z,14.50
2019-03-15T18:10:28.103Z,14.60
2019-03-15T18:12:56.307Z,14.90
2019-03-15T18:15:24.417Z,14.50
2019-03-15T18:17:52.780Z,14.40
2019-03-15T18:20:20.927Z,14.90
2019-03-15T18:22:49.100Z,15.00
2019-03-15T18:25:17.442Z,15.10
2019-03-15T18:27:45.971Z,14.90
2019-03-15T18:30:14.246Z,14.80
2019-03-15T18:32:42.258Z,14.80
2019-03-15T18:35:10.596Z,14.80
2019-03-15T18:37:38.427Z,14.90
2019-03-15T18:40:08.543Z,14.80
2019-03-15T18:42:36.748Z,14.70
2019-03-15T18:45:06.613Z,14.90
2019-03-15T18:47:34.906Z,14.80
2019-03-15T18:50:03.297Z,14.60
2019-03-15T18:52:31.487Z,14.30
2019-03-15T18:54:59.681Z,13.90
2019-03-15T18:57:27.872Z,13.70
2019-03-15T18:59:56.121Z,13.90
2019-03-15T19:02:24.324Z,14.00
2019-03-15T19:04:52.459Z,13.90
2019-03-15T19:07:20.637Z,13.70
2019-03-15T19:09:48.836Z,13.70
2019-03-15T19:12:16.964Z,13.50
2019-03-15T19:14:45.130Z,13.70
2019-03-15T19:17:13.245Z,13.80
2019-03-15T19:19:41.495Z,13.70
2019-03-15T19:22:09.724Z,13.70
2019-03-15T19:24:38.069Z,13.50
2019-03-15T19:27:06.322Z,13.40
2019-03-15T19:29:34.604Z,13.60
2019-03-15T19:32:02.719Z,13.50
2019-03-15T19:34:30.843Z,13.50
2019-03-15T19:37:00.966Z,13.30
2019-03-15T19:39:48.093Z,13.10
2019-03-15T19:42:16.167Z,13.40
2019-03-15T19:44:44.438Z,13.40
2019-03-15T19:47:12.638Z,13.40
2019-03-15T19:49:40.872Z,13.40
2019-03-15T19:52:09.140Z,13.10
2019-03-15T19:54:37.390Z,13.10
2019-03-15T19:57:05.604Z,13.00
2019-03-15T19:59:33.926Z,12.90
2019-03-15T20:02:02.018Z,12.90
2019-03-15T20:04:30.413Z,13.00
2019-03-15T20:06:58.717Z,13.20
2019-03-15T20:09:26.936Z,13.10
2019-03-15T20:11:54.970Z,13.00
2019-03-15T20:14:23.236Z,12.80
2019-03-15T20:16:51.433Z,12.70
2019-03-15T20:19:19.561Z,12.60
2019-03-15T20:21:47.850Z,12.80
2019-03-15T20:24:16.178Z,12.80
2019-03-15T20:26:44.383Z,13.00
2019-03-15T20:29:12.609Z,13.30
2019-03-15T20:31:40.679Z,12.70
2019-03-15T20:34:09.015Z,12.40
2019-03-15T20:36:37.162Z,12.40
2019-03-15T20:39:06.947Z,12.10
2019-03-15T20:41:34.967Z,12.20
2019-03-15T20:44:03.279Z,11.90
2019-03-15T20:46:35.920Z,12.10
2019-03-15T20:49:02.684Z,12.10
2019-03-15T20:51:30.859Z,12.30
2019-03-15T20:53:58.728Z,12.40
2019-03-15T20:56:26.966Z,12.30
2019-03-15T20:58:55.183Z,12.50
2019-03-15T21:01:23.670Z,12.90
2019-03-15T21:03:56.278Z,13.00
2019-03-15T21:06:21.724Z,13.10
2019-03-15T21:08:49.964Z,13.20
2019-03-15T21:11:18.111Z,13.20
2019-03-15T21:13:46.357Z,12.70
2019-03-15T21:16:14.488Z,12.90
2019-03-15T21:18:42.618Z,12.90
2019-03-15T21:21:10.761Z,13.00
2019-03-15T21:23:39.127Z,13.00
2019-03-15T21:26:07.413Z,13.30
2019-03-15T21:28:35.585Z,13.30
2019-03-15T21:31:03.882Z,13.30
2019-03-15T21:33:32.038Z,13.20
2019-03-15T21:36:00.113Z,13.10
2019-03-15T21:38:28.505Z,13.10
2019-03-15T21:40:56.979Z,13.00
2019-03-15T21:43:25.276Z,12.80
2019-03-15T21:45:53.632Z,12.90
2019-03-15T21:48:21.679Z,13.00
2019-03-15T21:50:49.895Z,13.00
2019-03-15T21:53:18.093Z,12.90
2019-03-15T21:55:46.284Z,12.80
2019-03-15T21:58:14.636Z,12.90
2019-03-15T22:00:42.942Z,13.00
2019-03-15T22:03:11.238Z,13.00
2019-03-15T22:05:39.335Z,13.10
2019-03-15T22:08:07.658Z,13.10
2019-03-15T22:10:35.864Z,13.10
2019-03-15T22:13:04.112Z,13.30
2019-03-15T22:15:32.342Z,13.10
2019-03-15T22:18:00.686Z,13.10
2019-03-15T22:20:28.965Z,13.10
2019-03-15T22:22:57.275Z,13.10
2019-03-15T22:25:25.519Z,13.10
2019-03-15T22:27:53.909Z,13.00
2019-03-15T22:30:22.419Z,13.00
2019-03-15T22:32:50.665Z,12.90
2019-03-15T22:35:18.928Z,13.00
2019-03-15T22:37:47.139Z,12.90
2019-03-15T22:40:15.711Z,13.10
2019-03-15T22:42:43.949Z,12.90
2019-03-15T22:45:12.172Z,12.80
2019-03-15T22:47:40.410Z,12.40
2019-03-15T22:50:08.992Z,12.40
2019-03-15T22:52:37.059Z,12.40
2019-03-15T22:55:05.657Z,12.40
2019-03-15T22:57:33.838Z,12.60
2019-03-15T23:00:02.155Z,12.70
2019-03-15T23:02:30.307Z,12.70
2019-03-15T23:04:58.684Z,12.60
2019-03-15T23:07:26.964Z,12.60
2019-03-15T23:09:55.197Z,12.60
2019-03-15T23:12:23.502Z,12.60
2019-03-15T23:14:51.802Z,12.50
2019-03-15T23:17:20.018Z,12.40
2019-03-15T23:19:48.188Z,12.40
2019-03-15T23:22:16.430Z,12.30
2019-03-15T23:24:44.443Z,12.40
2019-03-15T23:27:12.809Z,12.40
2019-03-15T23:29:41.136Z,12.50
2019-03-15T23:32:09.295Z,12.40
2019-03-15T23:34:37.664Z,12.40
2019-03-15T23:37:05.985Z,12.40
2019-03-15T23:39:33.948Z,12.40
2019-03-15T23:42:02.061Z,12.50
2019-03-15T23:44:30.540Z,12.40
2019-03-15T23:46:58.935Z,12.40
2019-03-15T23:49:27.298Z,12.30
2019-03-15T23:51:55.476Z,12.40
2019-03-15T23:54:23.664Z,12.40
2019-03-15T23:56:51.943Z,12.50
2019-03-15T23:59:20.520Z,12.40
